CPX418 Details

Departure: Theodore Francis Green State Airport (KPVD)
Arrival: Chicago/Rockford International Airport (KRFD) at N/A
Route: BAF HNK NUGNT DJB J60 JOT V171 RFD
Notes:


Current Weather Information
KPVD 251151Z 02008KT 10SM FEW040 FEW090 18/14 A3030 RMK AO2 SLP260 T01780144 10178 20150 53008
KRFD 251154Z 08006KT 10SM BKN049 BKN070 15/12 A3015 RMK AO2 SLP209 T01500117 10156 20150 58001